OAL822 SUMU-SAMM
Flight info
| Callsign | OAL822 |
|---|---|
| Flight time | N/A |
| Altitude | 34000 |
| Route | DAGUS UL405 UGIMI DCT PTA DCT EZE UW68 GPI UM783 LOLAS USVER |
| Aircraft | B738/M-SDE2E3FGHIRWXY/LB1 |
Departure
| Time | N/A |
|---|---|
| Airport | Carrasco General Cesáreo L. Berisso International Airport (SUMU) |
Arrival
| Time | 2026-05-09 16:38 |
|---|---|
| Airport | Comodoro D.R. Salomón Airport (SAMM) |
| Time | Latitude | Longitude | Altitude | Speed | Heading |
|---|---|---|---|---|---|
| 2026-05-09 16:37 | -35.48539 | -69.58157 | 4677 ft | 0 kts | 144° |
| 2026-05-09 16:42 | -35.51724 | -69.50834 | 6855 ft | 246 kts | 86° |
| 2026-05-09 16:42 | -35.51631 | -69.48700 | 7321 ft | 253 kts | 88° |
| 2026-05-09 16:42 | -35.51569 | -69.46476 | 7658 ft | 270 kts | 89° |
| 2026-05-09 16:42 | -35.51547 | -69.44121 | 8227 ft | 279 kts | 90° |
| 2026-05-09 16:43 | -35.51560 | -69.41752 | 9178 ft | 277 kts | 91° |
| 2026-05-09 16:43 | -35.51599 | -69.39371 | 10016 ft | 281 kts | 92° |
| 2026-05-09 16:43 | -35.51659 | -69.36983 | 10716 ft | 287 kts | 92° |
| 2026-05-09 16:43 | -35.51738 | -69.34449 | 10950 ft | 311 kts | 93° |
| 2026-05-09 16:44 | -35.51837 | -69.31696 | 11138 ft | 335 kts | 94° |
| 2026-05-09 16:44 | -35.51948 | -69.28843 | 11612 ft | 346 kts | 94° |
| 2026-05-09 16:44 | -35.52071 | -69.25817 | 12315 ft | 351 kts | 95° |
| 2026-05-09 16:44 | -35.52197 | -69.22808 | 13082 ft | 354 kts | 95° |
| 2026-05-09 16:45 | -35.52326 | -69.19780 | 13820 ft | 358 kts | 96° |
| 2026-05-09 16:45 | -35.52459 | -69.16704 | 14471 ft | 363 kts | 96° |
| 2026-05-09 16:45 | -35.52593 | -69.13601 | 15156 ft | 364 kts | 97° |
| 2026-05-09 16:45 | -35.52726 | -69.10506 | 15894 ft | 364 kts | 98° |
| 2026-05-09 16:46 | -35.52857 | -69.07446 | 16596 ft | 365 kts | 98° |
| 2026-05-09 16:46 | -35.52992 | -69.04307 | 17276 ft | 367 kts | 99° |
| 2026-05-09 16:46 | -35.53125 | -69.01178 | 17942 ft | 369 kts | 100° |
| 2026-05-09 16:46 | -35.53259 | -68.98028 | 18605 ft | 370 kts | 101° |
| 2026-05-09 16:47 | -35.53392 | -68.94857 | 19134 ft | 372 kts | 101° |
| 2026-05-09 16:47 | -35.53527 | -68.91666 | 19598 ft | 376 kts | 101° |
| 2026-05-09 16:47 | -35.53662 | -68.88431 | 20069 ft | 380 kts | 101° |
| 2026-05-09 16:47 | -35.53798 | -68.85175 | 20572 ft | 383 kts | 101° |
| 2026-05-09 16:48 | -35.53932 | -68.81893 | 21084 ft | 386 kts | 101° |
| 2026-05-09 16:48 | -35.54067 | -68.78590 | 21577 ft | 389 kts | 101° |
| 2026-05-09 16:48 | -35.54202 | -68.75254 | 22071 ft | 393 kts | 101° |
| 2026-05-09 16:48 | -35.54337 | -68.71889 | 22536 ft | 396 kts | 101° |
| 2026-05-09 16:49 | -35.54472 | -68.68497 | 22998 ft | 399 kts | 101° |
| 2026-05-09 16:49 | -35.54607 | -68.65092 | 23441 ft | 402 kts | 101° |
| 2026-05-09 16:49 | -35.54742 | -68.61648 | 23885 ft | 405 kts | 101° |
| 2026-05-09 16:50 | -35.55010 | -68.54707 | 24689 ft | 407 kts | 101° |
| 2026-05-09 16:50 | -35.55141 | -68.51274 | 25099 ft | 407 kts | 101° |
| 2026-05-09 16:50 | -35.55272 | -68.47793 | 25480 ft | 409 kts | 101° |
| 2026-05-09 16:50 | -35.55406 | -68.44286 | 25878 ft | 412 kts | 102° |
| 2026-05-09 16:51 | -35.55537 | -68.40767 | 26324 ft | 411 kts | 102° |
| 2026-05-09 16:51 | -35.55669 | -68.37272 | 26702 ft | 412 kts | 102° |
| 2026-05-09 16:51 | -35.55801 | -68.33724 | 27048 ft | 414 kts | 102° |
| 2026-05-09 16:51 | -35.55932 | -68.30183 | 27437 ft | 415 kts | 102° |
| 2026-05-09 16:52 | -35.56061 | -68.26630 | 27811 ft | 416 kts | 102° |
| 2026-05-09 16:52 | -35.56188 | -68.23069 | 28158 ft | 418 kts | 102° |
| 2026-05-09 16:52 | -35.56312 | -68.19498 | 28492 ft | 419 kts | 102° |
| 2026-05-09 16:52 | -35.56439 | -68.15948 | 28847 ft | 420 kts | 102° |
| 2026-05-09 16:53 | -35.56566 | -68.12350 | 29185 ft | 422 kts | 102° |
| 2026-05-09 16:53 | -35.56693 | -68.08741 | 29503 ft | 423 kts | 103° |
| 2026-05-09 16:53 | -35.56819 | -68.05125 | 29831 ft | 425 kts | 103° |
| 2026-05-09 16:53 | -35.56946 | -68.01502 | 30152 ft | 425 kts | 103° |
| 2026-05-09 16:54 | -35.57099 | -67.97866 | 30546 ft | 424 kts | 103° |
| 2026-05-09 16:54 | -35.57263 | -67.94301 | 30918 ft | 422 kts | 104° |
| 2026-05-09 16:54 | -35.57434 | -67.90701 | 31206 ft | 422 kts | 104° |
| 2026-05-09 16:54 | -35.57606 | -67.87095 | 31452 ft | 423 kts | 104° |
| 2026-05-09 16:55 | -35.57776 | -67.83486 | 31742 ft | 424 kts | 104° |
| 2026-05-09 16:55 | -35.57942 | -67.79866 | 32063 ft | 423 kts | 104° |
| 2026-05-09 16:55 | -35.58105 | -67.76251 | 32359 ft | 423 kts | 104° |
| 2026-05-09 16:55 | -35.58266 | -67.72641 | 32652 ft | 423 kts | 105° |
| 2026-05-09 16:56 | -35.58425 | -67.69039 | 32948 ft | 423 kts | 105° |
| 2026-05-09 16:56 | -35.58582 | -67.65429 | 33246 ft | 423 kts | 105° |
| 2026-05-09 16:56 | -35.58739 | -67.61816 | 33539 ft | 422 kts | 105° |
| 2026-05-09 16:56 | -35.58894 | -67.58221 | 33852 ft | 422 kts | 105° |
| 2026-05-09 16:57 | -35.59045 | -67.54664 | 34148 ft | 421 kts | 105° |
| 2026-05-09 16:57 | -35.59198 | -67.51077 | 34421 ft | 421 kts | 105° |
| 2026-05-09 16:57 | -35.59349 | -67.47496 | 34676 ft | 420 kts | 105° |
| 2026-05-09 16:57 | -35.59498 | -67.43920 | 34941 ft | 419 kts | 105° |
| 2026-05-09 16:58 | -35.59647 | -67.40345 | 35176 ft | 419 kts | 105° |
| 2026-05-09 16:58 | -35.59795 | -67.36771 | 35403 ft | 419 kts | 105° |
| 2026-05-09 16:58 | -35.59943 | -67.33187 | 35643 ft | 418 kts | 105° |
| 2026-05-09 16:58 | -35.60088 | -67.29622 | 35898 ft | 417 kts | 105° |
| 2026-05-09 16:59 | -35.60231 | -67.26074 | 36119 ft | 417 kts | 105° |
| 2026-05-09 16:59 | -35.60375 | -67.22510 | 36335 ft | 417 kts | 105° |
| 2026-05-09 16:59 | -35.60517 | -67.18950 | 36566 ft | 416 kts | 105° |
| 2026-05-09 16:59 | -35.60658 | -67.15403 | 36777 ft | 416 kts | 105° |
| 2026-05-09 17:00 | -35.60797 | -67.11847 | 36996 ft | 415 kts | 105° |
| 2026-05-09 17:00 | -35.60936 | -67.08294 | 37219 ft | 415 kts | 105° |
| 2026-05-09 17:00 | -35.61071 | -67.04808 | 37401 ft | 415 kts | 105° |
| 2026-05-09 17:01 | -35.61348 | -66.97676 | 37421 ft | 417 kts | 105° |
| 2026-05-09 17:01 | -35.61611 | -66.90582 | 37417 ft | 413 kts | 105° |
| 2026-05-09 17:02 | -35.61867 | -66.83563 | 37416 ft | 409 kts | 105° |
| 2026-05-09 17:02 | -35.62122 | -66.76589 | 37418 ft | 406 kts | 106° |
| 2026-05-09 17:03 | -35.62372 | -66.69677 | 37416 ft | 404 kts | 106° |
| 2026-05-09 17:05 | -35.63334 | -66.42002 | 37383 ft | 410 kts | 106° |
| 2026-05-09 17:05 | -35.63572 | -66.34933 | 37423 ft | 416 kts | 105° |
| 2026-05-09 17:06 | -35.63800 | -66.27804 | 37414 ft | 415 kts | 105° |
| 2026-05-09 17:06 | -35.64013 | -66.20807 | 37409 ft | 406 kts | 105° |
| 2026-05-09 17:07 | -35.64235 | -66.13908 | 37408 ft | 405 kts | 105° |
| 2026-05-09 17:07 | -35.64449 | -66.06989 | 37416 ft | 404 kts | 105° |
| 2026-05-09 17:08 | -35.64655 | -66.00071 | 37402 ft | 404 kts | 105° |
| 2026-05-09 17:08 | -35.64954 | -65.89745 | 37398 ft | 405 kts | 105° |
| 2026-05-09 17:09 | -35.65151 | -65.82797 | 37400 ft | 406 kts | 105° |
| 2026-05-09 17:09 | -35.65344 | -65.75859 | 37401 ft | 407 kts | 105° |
| 2026-05-09 17:10 | -35.65535 | -65.68861 | 37397 ft | 409 kts | 105° |
| 2026-05-09 17:10 | -35.65718 | -65.61980 | 37390 ft | 411 kts | 105° |
| 2026-05-09 17:11 | -35.65900 | -65.54948 | 37397 ft | 412 kts | 105° |
| 2026-05-09 17:11 | -35.66079 | -65.47897 | 37396 ft | 413 kts | 104° |
| 2026-05-09 17:12 | -35.66255 | -65.40825 | 37390 ft | 414 kts | 104° |
| 2026-05-09 17:12 | -35.66397 | -65.34940 | 37375 ft | 415 kts | 104° |
| 2026-05-09 17:13 | -35.66566 | -65.27844 | 37372 ft | 415 kts | 104° |
| 2026-05-09 17:13 | -35.66757 | -65.19566 | 37371 ft | 416 kts | 104° |
| 2026-05-09 17:14 | -35.66891 | -65.13625 | 37366 ft | 416 kts | 104° |
| 2026-05-09 17:14 | -35.67046 | -65.06547 | 37371 ft | 416 kts | 104° |
| 2026-05-09 17:15 | -35.67198 | -64.99442 | 37364 ft | 416 kts | 104° |
| 2026-05-09 17:15 | -35.67347 | -64.92319 | 37362 ft | 416 kts | 103° |
| 2026-05-09 17:17 | -35.67900 | -64.63911 | 37346 ft | 417 kts | 103° |
| 2026-05-09 17:18 | -35.68029 | -64.56816 | 37341 ft | 417 kts | 103° |
| 2026-05-09 17:18 | -35.68154 | -64.49682 | 37345 ft | 417 kts | 103° |
| 2026-05-09 17:19 | -35.68276 | -64.42538 | 37344 ft | 418 kts | 103° |
| 2026-05-09 17:19 | -35.68393 | -64.35377 | 37346 ft | 419 kts | 102° |
| 2026-05-09 17:20 | -35.68507 | -64.28218 | 37346 ft | 419 kts | 102° |
| 2026-05-09 17:20 | -35.68615 | -64.21084 | 37341 ft | 420 kts | 102° |
| 2026-05-09 17:21 | -35.68719 | -64.13931 | 37327 ft | 421 kts | 102° |
| 2026-05-09 17:21 | -35.68820 | -64.06723 | 37321 ft | 422 kts | 102° |
| 2026-05-09 17:22 | -35.68917 | -63.99483 | 37306 ft | 423 kts | 102° |
| 2026-05-09 17:22 | -35.69010 | -63.92234 | 37304 ft | 424 kts | 101° |
| 2026-05-09 17:23 | -35.69099 | -63.84968 | 37295 ft | 425 kts | 101° |
| 2026-05-09 17:23 | -35.69180 | -63.77764 | 37299 ft | 427 kts | 100° |
| 2026-05-09 17:25 | -35.66843 | -63.59198 | 37301 ft | 443 kts | 90° |
| 2026-05-09 17:25 | -35.66307 | -63.55476 | 37302 ft | 443 kts | 90° |
| 2026-05-09 17:25 | -35.65252 | -63.48010 | 37313 ft | 443 kts | 90° |
| 2026-05-09 17:26 | -35.64199 | -63.40539 | 37310 ft | 444 kts | 90° |
| 2026-05-09 17:26 | -35.63145 | -63.33113 | 37302 ft | 444 kts | 90° |
| 2026-05-09 17:27 | -35.62051 | -63.25624 | 37301 ft | 445 kts | 89° |
| 2026-05-09 17:27 | -35.60940 | -63.18142 | 37304 ft | 445 kts | 89° |
| 2026-05-09 17:28 | -35.59830 | -63.10677 | 37300 ft | 445 kts | 89° |
| 2026-05-09 17:28 | -35.58717 | -63.03205 | 37297 ft | 445 kts | 89° |
| 2026-05-09 17:29 | -35.57599 | -62.95726 | 37297 ft | 445 kts | 89° |
| 2026-05-09 17:29 | -35.56470 | -62.88242 | 37291 ft | 445 kts | 89° |
| 2026-05-09 17:30 | -35.55344 | -62.80816 | 37285 ft | 445 kts | 88° |
| 2026-05-09 17:30 | -35.54211 | -62.73369 | 37285 ft | 445 kts | 88° |
| 2026-05-09 17:31 | -35.53070 | -62.65901 | 37279 ft | 445 kts | 88° |
| 2026-05-09 17:32 | -35.50193 | -62.47195 | 37273 ft | 446 kts | 88° |
| 2026-05-09 17:33 | -35.49033 | -62.39713 | 37275 ft | 447 kts | 87° |
| 2026-05-09 17:33 | -35.47866 | -62.32216 | 37268 ft | 447 kts | 87° |
| 2026-05-09 17:34 | -35.46699 | -62.24752 | 37267 ft | 448 kts | 87° |
| 2026-05-09 17:35 | -35.42550 | -61.98465 | 37258 ft | 450 kts | 86° |
| 2026-05-09 17:36 | -35.41347 | -61.90909 | 37255 ft | 451 kts | 86° |
| 2026-05-09 17:36 | -35.40136 | -61.83338 | 37251 ft | 452 kts | 86° |
| 2026-05-09 17:37 | -35.38922 | -61.75776 | 37237 ft | 453 kts | 85° |
| 2026-05-09 17:37 | -35.37706 | -61.68238 | 37243 ft | 453 kts | 85° |
| 2026-05-09 17:38 | -35.36475 | -61.60636 | 37234 ft | 454 kts | 85° |
| 2026-05-09 17:39 | -35.34636 | -61.49321 | 37232 ft | 455 kts | 85° |
| 2026-05-09 17:39 | -35.33395 | -61.41724 | 37222 ft | 455 kts | 84° |
| 2026-05-09 17:40 | -35.32145 | -61.34103 | 37219 ft | 456 kts | 84° |
| 2026-05-09 17:40 | -35.30890 | -61.26483 | 37216 ft | 456 kts | 84° |
| 2026-05-09 17:41 | -35.29628 | -61.18857 | 37210 ft | 457 kts | 84° |
| 2026-05-09 17:41 | -35.28369 | -61.11278 | 37205 ft | 457 kts | 84° |
| 2026-05-09 17:42 | -35.27089 | -61.03605 | 37205 ft | 457 kts | 83° |
| 2026-05-09 17:42 | -35.25820 | -60.96022 | 37200 ft | 458 kts | 83° |
| 2026-05-09 17:43 | -35.24536 | -60.88384 | 37195 ft | 458 kts | 83° |
| 2026-05-09 17:43 | -35.23893 | -60.84569 | 37089 ft | 460 kts | 83° |
| 2026-05-09 17:43 | -35.23242 | -60.80710 | 36546 ft | 464 kts | 83° |
| 2026-05-09 17:43 | -35.22588 | -60.76846 | 36028 ft | 462 kts | 83° |
| 2026-05-09 17:44 | -35.21937 | -60.73020 | 35620 ft | 457 kts | 82° |
| 2026-05-09 17:44 | -35.21290 | -60.69225 | 35180 ft | 454 kts | 82° |
| 2026-05-09 17:44 | -35.20647 | -60.65456 | 34748 ft | 450 kts | 82° |
| 2026-05-09 17:44 | -35.20011 | -60.61731 | 34329 ft | 447 kts | 82° |
| 2026-05-09 17:45 | -35.19377 | -60.58019 | 33843 ft | 444 kts | 82° |
| 2026-05-09 17:45 | -35.18751 | -60.54362 | 33377 ft | 441 kts | 82° |
| 2026-05-09 17:45 | -35.18125 | -60.50717 | 32939 ft | 437 kts | 82° |
| 2026-05-09 17:45 | -35.17501 | -60.47085 | 32516 ft | 434 kts | 82° |
| 2026-05-09 17:46 | -35.16883 | -60.43496 | 32102 ft | 430 kts | 82° |
| 2026-05-09 17:46 | -35.16266 | -60.39916 | 31688 ft | 427 kts | 81° |
| 2026-05-09 17:46 | -35.15655 | -60.36383 | 31282 ft | 424 kts | 81° |
| 2026-05-09 17:46 | -35.15052 | -60.32901 | 30825 ft | 423 kts | 81° |
| 2026-05-09 17:47 | -35.14439 | -60.29381 | 30367 ft | 422 kts | 81° |
| 2026-05-09 17:47 | -35.13829 | -60.25893 | 29920 ft | 419 kts | 81° |
| 2026-05-09 17:47 | -35.13222 | -60.22431 | 29455 ft | 416 kts | 81° |
| 2026-05-09 17:47 | -35.12619 | -60.18993 | 29027 ft | 412 kts | 81° |
| 2026-05-09 17:48 | -35.12019 | -60.15577 | 28608 ft | 408 kts | 81° |
| 2026-05-09 17:48 | -35.11423 | -60.12186 | 28207 ft | 404 kts | 81° |
| 2026-05-09 17:48 | -35.10836 | -60.08849 | 27791 ft | 401 kts | 81° |
| 2026-05-09 17:48 | -35.10259 | -60.05572 | 27391 ft | 398 kts | 81° |
| 2026-05-09 17:49 | -35.09676 | -60.02273 | 26989 ft | 395 kts | 81° |
| 2026-05-09 17:49 | -35.09096 | -59.98994 | 26595 ft | 392 kts | 81° |
| 2026-05-09 17:49 | -35.08522 | -59.95748 | 26203 ft | 390 kts | 81° |
| 2026-05-09 17:49 | -35.07950 | -59.92527 | 25814 ft | 387 kts | 81° |
| 2026-05-09 17:50 | -35.07380 | -59.89314 | 25424 ft | 385 kts | 81° |
| 2026-05-09 17:50 | -35.06249 | -59.82966 | 24655 ft | 381 kts | 81° |
| 2026-05-09 17:50 | -35.05875 | -59.80867 | 24392 ft | 380 kts | 81° |
| 2026-05-09 17:51 | -35.05130 | -59.76697 | 23875 ft | 379 kts | 81° |
| 2026-05-09 17:51 | -35.04567 | -59.73552 | 23437 ft | 378 kts | 81° |
| 2026-05-09 17:51 | -35.04008 | -59.70430 | 23008 ft | 376 kts | 81° |
| 2026-05-09 17:51 | -35.03449 | -59.67321 | 22609 ft | 374 kts | 81° |
| 2026-05-09 17:52 | -35.02892 | -59.64237 | 22213 ft | 371 kts | 81° |
| 2026-05-09 17:52 | -35.01990 | -59.61282 | 21798 ft | 376 kts | 62° |
| 2026-05-09 17:52 | -35.00572 | -59.58619 | 21446 ft | 374 kts | 59° |
| 2026-05-09 17:52 | -34.99101 | -59.56006 | 21054 ft | 373 kts | 58° |
| 2026-05-09 17:53 | -34.97622 | -59.53399 | 20665 ft | 371 kts | 59° |
| 2026-05-09 17:53 | -34.96183 | -59.50844 | 20295 ft | 369 kts | 59° |
| 2026-05-09 17:53 | -34.94739 | -59.48262 | 19925 ft | 368 kts | 59° |
| 2026-05-09 17:53 | -34.93303 | -59.45676 | 19545 ft | 366 kts | 60° |
| 2026-05-09 17:54 | -34.91885 | -59.43112 | 19161 ft | 366 kts | 60° |
| 2026-05-09 17:54 | -34.90460 | -59.40530 | 18778 ft | 365 kts | 60° |
| 2026-05-09 17:54 | -34.89044 | -59.37963 | 18394 ft | 364 kts | 60° |
| 2026-05-09 17:54 | -34.87632 | -59.35405 | 17976 ft | 363 kts | 60° |
| 2026-05-09 17:55 | -34.86225 | -59.32857 | 17588 ft | 362 kts | 60° |
| 2026-05-09 17:55 | -34.84821 | -59.30316 | 17206 ft | 360 kts | 60° |
| 2026-05-09 17:55 | -34.83442 | -59.27822 | 16831 ft | 358 kts | 60° |
| 2026-05-09 17:55 | -34.82055 | -59.25317 | 16472 ft | 356 kts | 60° |
| 2026-05-09 17:56 | -34.80672 | -59.22818 | 16101 ft | 354 kts | 60° |
| 2026-05-09 17:56 | -34.79295 | -59.20332 | 15740 ft | 353 kts | 59° |
| 2026-05-09 17:56 | -34.77928 | -59.17867 | 15382 ft | 351 kts | 59° |
| 2026-05-09 17:57 | -34.75204 | -59.12962 | 14661 ft | 349 kts | 59° |
| 2026-05-09 17:57 | -34.73843 | -59.10515 | 14275 ft | 348 kts | 59° |
| 2026-05-09 17:57 | -34.72488 | -59.08081 | 13922 ft | 347 kts | 59° |
| 2026-05-09 17:57 | -34.71152 | -59.05680 | 13503 ft | 347 kts | 59° |
| 2026-05-09 17:58 | -34.69802 | -59.03258 | 13142 ft | 345 kts | 58° |
| 2026-05-09 17:58 | -34.68454 | -59.00839 | 12759 ft | 344 kts | 58° |
| 2026-05-09 17:58 | -34.67115 | -58.98439 | 12394 ft | 342 kts | 58° |
| 2026-05-09 17:58 | -34.65784 | -58.96053 | 12024 ft | 340 kts | 58° |
| 2026-05-09 17:59 | -34.64464 | -58.93688 | 11676 ft | 338 kts | 58° |
| 2026-05-09 17:59 | -34.63153 | -58.91341 | 11336 ft | 335 kts | 58° |
| 2026-05-09 17:59 | -34.61842 | -58.88995 | 10991 ft | 333 kts | 58° |
| 2026-05-09 17:59 | -34.60545 | -58.86675 | 10648 ft | 331 kts | 58° |
| 2026-05-09 18:00 | -34.59258 | -58.84376 | 10402 ft | 326 kts | 57° |
| 2026-05-09 18:00 | -34.57995 | -58.82124 | 10253 ft | 318 kts | 57° |
| 2026-05-09 18:00 | -34.57031 | -58.79787 | 10092 ft | 305 kts | 80° |
| 2026-05-09 18:00 | -34.56864 | -58.77297 | 9837 ft | 294 kts | 101° |
| 2026-05-09 18:01 | -34.57346 | -58.74961 | 9533 ft | 286 kts | 112° |
| 2026-05-09 18:01 | -34.57987 | -58.72673 | 9206 ft | 284 kts | 114° |
| 2026-05-09 18:01 | -34.58630 | -58.70450 | 8919 ft | 282 kts | 114° |
| 2026-05-09 18:01 | -34.59262 | -58.68234 | 8633 ft | 280 kts | 114° |
| 2026-05-09 18:02 | -34.59887 | -58.66001 | 8346 ft | 278 kts | 114° |
| 2026-05-09 18:02 | -34.60498 | -58.63796 | 8068 ft | 276 kts | 114° |
| 2026-05-09 18:02 | -34.60903 | -58.62330 | 7885 ft | 275 kts | 114° |
| 2026-05-09 18:02 | -34.61511 | -58.60106 | 7611 ft | 273 kts | 114° |
| 2026-05-09 18:03 | -34.62088 | -58.57947 | 7335 ft | 271 kts | 114° |
| 2026-05-09 18:03 | -34.62666 | -58.55777 | 7067 ft | 269 kts | 114° |
| 2026-05-09 18:03 | -34.63238 | -58.53626 | 6796 ft | 267 kts | 114° |
| 2026-05-09 18:03 | -34.63809 | -58.51478 | 6528 ft | 265 kts | 114° |
| 2026-05-09 18:04 | -34.64374 | -58.49353 | 6240 ft | 263 kts | 114° |
| 2026-05-09 18:04 | -34.64933 | -58.47252 | 5946 ft | 262 kts | 114° |
| 2026-05-09 18:04 | -34.65484 | -58.45178 | 5649 ft | 261 kts | 115° |
| 2026-05-09 18:04 | -34.66041 | -58.43083 | 5355 ft | 260 kts | 114° |
| 2026-05-09 18:05 | -34.66597 | -58.40989 | 5058 ft | 259 kts | 114° |
| 2026-05-09 18:05 | -34.67147 | -58.38916 | 4781 ft | 257 kts | 114° |
| 2026-05-09 18:05 | -34.67692 | -58.36859 | 4501 ft | 255 kts | 114° |
| 2026-05-09 18:05 | -34.68227 | -58.34836 | 4365 ft | 248 kts | 114° |
| 2026-05-09 18:06 | -34.68745 | -58.32872 | 4260 ft | 241 kts | 115° |
| 2026-05-09 18:06 | -34.69255 | -58.30943 | 4208 ft | 239 kts | 114° |
| 2026-05-09 18:06 | -34.69766 | -58.29017 | 4088 ft | 242 kts | 115° |
| 2026-05-09 18:06 | -34.69992 | -58.26957 | 3879 ft | 258 kts | 86° |
| 2026-05-09 18:07 | -34.69249 | -58.24949 | 3667 ft | 267 kts | 48° |
| 2026-05-09 18:07 | -34.67693 | -58.23800 | 3548 ft | 264 kts | 9° |
| 2026-05-09 18:07 | -34.65907 | -58.23934 | 3180 ft | 264 kts | 330° |
| 2026-05-09 18:07 | -34.64576 | -58.25324 | 2928 ft | 249 kts | 292° |
| 2026-05-09 18:08 | -34.63767 | -58.27190 | 2585 ft | 253 kts | 294° |
| 2026-05-09 18:08 | -34.62848 | -58.29024 | 2227 ft | 249 kts | 296° |
| 2026-05-09 18:08 | -34.61936 | -58.30712 | 1945 ft | 228 kts | 297° |
| 2026-05-09 18:08 | -34.61098 | -58.32235 | 1646 ft | 210 kts | 297° |
| 2026-05-09 18:09 | -34.60320 | -58.33648 | 1376 ft | 193 kts | 296° |
| 2026-05-09 18:09 | -34.59598 | -58.34949 | 1140 ft | 175 kts | 296° |
| 2026-05-09 18:09 | -34.58953 | -58.36107 | 921 ft | 160 kts | 297° |
| 2026-05-09 18:09 | -34.58352 | -58.37194 | 719 ft | 150 kts | 298° |
| 2026-05-09 18:10 | -34.57792 | -58.38202 | 588 ft | 140 kts | 301° |
| 2026-05-09 18:10 | -34.57439 | -58.38843 | 404 ft | 135 kts | 302° |
| 2026-05-09 18:10 | -34.56771 | -58.40043 | 213 ft | 130 kts | 306° |
| 2026-05-09 18:10 | -34.56259 | -58.40966 | 39 ft | 133 kts | 306° |
| 2026-05-09 18:11 | -34.55755 | -58.41865 | 25 ft | 122 kts | 306° |
| 2026-05-09 18:11 | -34.55388 | -58.42514 | 28 ft | 34 kts | 305° |